sensor_id;sensor_type;location;lat;lon;timestamp;pressure;altitude;pressure_sealevel;temperature
40199;BMP280;25906;43.536;26.068;2023-02-26T00:02:21;97357.16;;;12.53
40199;BMP280;25906;43.536;26.068;2023-02-26T00:05:08;97362.25;;;12.45
40199;BMP280;25906;43.536;26.068;2023-02-26T00:07:53;97357.59;;;12.47
40199;BMP280;25906;43.536;26.068;2023-02-26T00:10:39;97343.66;;;12.39
40199;BMP280;25906;43.536;26.068;2023-02-26T00:13:24;97343.59;;;12.38
40199;BMP280;25906;43.536;26.068;2023-02-26T00:16:31;97353.03;;;12.37
40199;BMP280;25906;43.536;26.068;2023-02-26T00:19:17;97341.66;;;12.40
40199;BMP280;25906;43.536;26.068;2023-02-26T00:22:04;97347.25;;;12.44
40199;BMP280;25906;43.536;26.068;2023-02-26T00:24:50;97346.38;;;12.39
40199;BMP280;25906;43.536;26.068;2023-02-26T00:27:36;97351.00;;;12.22
40199;BMP280;25906;43.536;26.068;2023-02-26T00:30:21;97352.72;;;12.15
40199;BMP280;25906;43.536;26.068;2023-02-26T00:33:07;97343.88;;;11.99
40199;BMP280;25906;43.536;26.068;2023-02-26T00:35:58;97346.81;;;11.90
40199;BMP280;25906;43.536;26.068;2023-02-26T00:41:46;97336.97;;;11.83
40199;BMP280;25906;43.536;26.068;2023-02-26T00:44:32;97344.53;;;11.71
40199;BMP280;25906;43.536;26.068;2023-02-26T00:50:24;97338.09;;;12.07
40199;BMP280;25906;43.536;26.068;2023-02-26T00:56:21;97341.34;;;12.03
40199;BMP280;25906;43.536;26.068;2023-02-26T00:59:07;97336.66;;;11.90
40199;BMP280;25906;43.536;26.068;2023-02-26T01:01:52;97339.34;;;11.90
40199;BMP280;25906;43.536;26.068;2023-02-26T01:04:38;97340.94;;;11.80
40199;BMP280;25906;43.536;26.068;2023-02-26T01:07:24;97338.00;;;11.76
40199;BMP280;25906;43.536;26.068;2023-02-26T01:10:12;97346.53;;;11.84
40199;BMP280;25906;43.536;26.068;2023-02-26T01:12:58;97353.34;;;12.14
40199;BMP280;25906;43.536;26.068;2023-02-26T01:15:47;97359.03;;;12.20
40199;BMP280;25906;43.536;26.068;2023-02-26T01:18:43;97357.34;;;12.13
40199;BMP280;25906;43.536;26.068;2023-02-26T01:21:35;97357.06;;;12.07
40199;BMP280;25906;43.536;26.068;2023-02-26T01:24:22;97353.88;;;12.10
40199;BMP280;25906;43.536;26.068;2023-02-26T01:27:08;97358.56;;;11.94
40199;BMP280;25906;43.536;26.068;2023-02-26T01:29:54;97360.84;;;12.00
40199;BMP280;25906;43.536;26.068;2023-02-26T01:33:01;97365.19;;;11.91
40199;BMP280;25906;43.536;26.068;2023-02-26T01:36:00;97364.81;;;11.84
40199;BMP280;25906;43.536;26.068;2023-02-26T01:39:00;97373.34;;;11.78
40199;BMP280;25906;43.536;26.068;2023-02-26T01:41:54;97375.16;;;11.74
40199;BMP280;25906;43.536;26.068;2023-02-26T01:45:01;97382.06;;;11.90
40199;BMP280;25906;43.536;26.068;2023-02-26T01:47:54;97366.97;;;12.00
40199;BMP280;25906;43.536;26.068;2023-02-26T01:50:41;97367.25;;;12.06
40199;BMP280;25906;43.536;26.068;2023-02-26T01:53:28;97375.66;;;12.12
40199;BMP280;25906;43.536;26.068;2023-02-26T01:56:15;97369.69;;;12.00
40199;BMP280;25906;43.536;26.068;2023-02-26T01:59:07;97372.91;;;11.97
40199;BMP280;25906;43.536;26.068;2023-02-26T02:01:56;97381.50;;;12.07
40199;BMP280;25906;43.536;26.068;2023-02-26T02:04:43;97371.34;;;12.07
40199;BMP280;25906;43.536;26.068;2023-02-26T02:07:29;97372.69;;;11.93
40199;BMP280;25906;43.536;26.068;2023-02-26T02:10:15;97374.88;;;11.96
40199;BMP280;25906;43.536;26.068;2023-02-26T02:13:18;97369.06;;;12.02
40199;BMP280;25906;43.536;26.068;2023-02-26T02:32:09;97406.53;;;12.05
40199;BMP280;25906;43.536;26.068;2023-02-26T02:38:18;97391.78;;;12.24
40199;BMP280;25906;43.536;26.068;2023-02-26T02:41:10;97403.81;;;12.34
40199;BMP280;25906;43.536;26.068;2023-02-26T02:44:00;97407.03;;;12.31
40199;BMP280;25906;43.536;26.068;2023-02-26T02:46:49;97391.13;;;12.38
40199;BMP280;25906;43.536;26.068;2023-02-26T02:49:41;97395.94;;;12.40
40199;BMP280;25906;43.536;26.068;2023-02-26T02:52:37;97399.38;;;12.56
40199;BMP280;25906;43.536;26.068;2023-02-26T02:55:39;97383.34;;;12.46
40199;BMP280;25906;43.536;26.068;2023-02-26T02:58:31;97395.78;;;12.51
40199;BMP280;25906;43.536;26.068;2023-02-26T03:01:22;97401.66;;;12.46
40199;BMP280;25906;43.536;26.068;2023-02-26T03:04:13;97417.72;;;12.42
40199;BMP280;25906;43.536;26.068;2023-02-26T03:07:00;97412.94;;;12.56
40199;BMP280;25906;43.536;26.068;2023-02-26T03:09:46;97413.38;;;12.66
40199;BMP280;25906;43.536;26.068;2023-02-26T03:12:32;97422.25;;;12.82
40199;BMP280;25906;43.536;26.068;2023-02-26T03:15:25;97420.75;;;12.94
40199;BMP280;25906;43.536;26.068;2023-02-26T03:27:04;97423.34;;;13.38
40199;BMP280;25906;43.536;26.068;2023-02-26T03:29:56;97404.09;;;13.49
40199;BMP280;25906;43.536;26.068;2023-02-26T03:35:38;97399.56;;;13.38
40199;BMP280;25906;43.536;26.068;2023-02-26T03:38:43;97428.69;;;13.36
40199;BMP280;25906;43.536;26.068;2023-02-26T03:41:38;97436.56;;;13.45
40199;BMP280;25906;43.536;26.068;2023-02-26T03:47:39;97408.13;;;13.48
40199;BMP280;25906;43.536;26.068;2023-02-26T03:50:48;97400.78;;;13.51
40199;BMP280;25906;43.536;26.068;2023-02-26T03:53:41;97408.47;;;13.56
40199;BMP280;25906;43.536;26.068;2023-02-26T03:56:33;97416.22;;;13.46
40199;BMP280;25906;43.536;26.068;2023-02-26T03:59:21;97424.44;;;13.48
40199;BMP280;25906;43.536;26.068;2023-02-26T04:02:13;97398.66;;;13.49
40199;BMP280;25906;43.536;26.068;2023-02-26T04:05:11;97396.56;;;13.48
40199;BMP280;25906;43.536;26.068;2023-02-26T04:07:57;97399.97;;;13.48
40199;BMP280;25906;43.536;26.068;2023-02-26T04:10:46;97382.44;;;13.51
40199;BMP280;25906;43.536;26.068;2023-02-26T04:13:32;97387.88;;;13.51
40199;BMP280;25906;43.536;26.068;2023-02-26T04:16:18;97413.56;;;13.48
40199;BMP280;25906;43.536;26.068;2023-02-26T04:19:04;97401.25;;;13.63
40199;BMP280;25906;43.536;26.068;2023-02-26T04:21:49;97412.97;;;13.67
40199;BMP280;25906;43.536;26.068;2023-02-26T04:24:35;97417.22;;;13.70
40199;BMP280;25906;43.536;26.068;2023-02-26T04:27:20;97410.50;;;13.73
40199;BMP280;25906;43.536;26.068;2023-02-26T04:30:06;97404.78;;;13.65
40199;BMP280;25906;43.536;26.068;2023-02-26T04:32:52;97420.63;;;13.71
40199;BMP280;25906;43.536;26.068;2023-02-26T04:35:37;97424.50;;;13.66
40199;BMP280;25906;43.536;26.068;2023-02-26T04:38:23;97421.09;;;13.65
40199;BMP280;25906;43.536;26.068;2023-02-26T04:41:08;97408.00;;;13.62
40199;BMP280;25906;43.536;26.068;2023-02-26T04:43:54;97407.09;;;13.73
40199;BMP280;25906;43.536;26.068;2023-02-26T04:46:39;97416.91;;;13.79
40199;BMP280;25906;43.536;26.068;2023-02-26T04:49:25;97412.72;;;13.76
40199;BMP280;25906;43.536;26.068;2023-02-26T04:52:10;97406.63;;;13.78
40199;BMP280;25906;43.536;26.068;2023-02-26T04:54:56;97416.19;;;13.79
40199;BMP280;25906;43.536;26.068;2023-02-26T04:57:41;97419.38;;;13.74
40199;BMP280;25906;43.536;26.068;2023-02-26T05:00:27;97416.13;;;13.77
40199;BMP280;25906;43.536;26.068;2023-02-26T05:03:12;97427.06;;;13.79
40199;BMP280;25906;43.536;26.068;2023-02-26T05:05:58;97440.97;;;13.70
40199;BMP280;25906;43.536;26.068;2023-02-26T05:08:43;97443.50;;;13.81
40199;BMP280;25906;43.536;26.068;2023-02-26T05:11:29;97437.81;;;13.75
40199;BMP280;25906;43.536;26.068;2023-02-26T05:14:15;97427.38;;;13.70
40199;BMP280;25906;43.536;26.068;2023-02-26T05:17:01;97423.81;;;13.65
40199;BMP280;25906;43.536;26.068;2023-02-26T05:19:47;97431.88;;;13.63
40199;BMP280;25906;43.536;26.068;2023-02-26T05:22:32;97432.56;;;13.64
40199;BMP280;25906;43.536;26.068;2023-02-26T05:25:18;97437.63;;;13.71
40199;BMP280;25906;43.536;26.068;2023-02-26T05:28:03;97434.22;;;13.71
40199;BMP280;25906;43.536;26.068;2023-02-26T05:30:49;97433.19;;;13.62
40199;BMP280;25906;43.536;26.068;2023-02-26T05:33:35;97436.94;;;13.71
40199;BMP280;25906;43.536;26.068;2023-02-26T05:36:20;97446.16;;;13.64
40199;BMP280;25906;43.536;26.068;2023-02-26T05:39:06;97443.00;;;13.69
40199;BMP280;25906;43.536;26.068;2023-02-26T05:41:51;97434.69;;;13.65
40199;BMP280;25906;43.536;26.068;2023-02-26T05:44:39;97447.03;;;13.68
40199;BMP280;25906;43.536;26.068;2023-02-26T05:47:25;97451.34;;;13.58
40199;BMP280;25906;43.536;26.068;2023-02-26T05:50:10;97463.38;;;13.53
40199;BMP280;25906;43.536;26.068;2023-02-26T05:52:56;97460.22;;;13.58
40199;BMP280;25906;43.536;26.068;2023-02-26T05:55:42;97458.91;;;13.59
40199;BMP280;25906;43.536;26.068;2023-02-26T05:58:27;97466.56;;;13.47
40199;BMP280;25906;43.536;26.068;2023-02-26T06:01:15;97471.38;;;13.49
40199;BMP280;25906;43.536;26.068;2023-02-26T06:04:00;97469.09;;;13.43
40199;BMP280;25906;43.536;26.068;2023-02-26T06:06:46;97468.81;;;13.53
40199;BMP280;25906;43.536;26.068;2023-02-26T06:09:32;97461.72;;;13.61
40199;BMP280;25906;43.536;26.068;2023-02-26T06:12:17;97473.81;;;13.58
40199;BMP280;25906;43.536;26.068;2023-02-26T06:15:04;97474.91;;;13.69
40199;BMP280;25906;43.536;26.068;2023-02-26T06:17:50;97464.09;;;13.53
40199;BMP280;25906;43.536;26.068;2023-02-26T06:20:36;97461.53;;;13.57
40199;BMP280;25906;43.536;26.068;2023-02-26T06:23:22;97463.09;;;13.62
40199;BMP280;25906;43.536;26.068;2023-02-26T06:26:08;97472.81;;;13.67
40199;BMP280;25906;43.536;26.068;2023-02-26T06:28:53;97475.25;;;13.76
40199;BMP280;25906;43.536;26.068;2023-02-26T06:31:39;97470.28;;;13.88
40199;BMP280;25906;43.536;26.068;2023-02-26T06:34:24;97478.22;;;13.82
40199;BMP280;25906;43.536;26.068;2023-02-26T06:37:10;97476.81;;;13.81
40199;BMP280;25906;43.536;26.068;2023-02-26T06:39:55;97475.50;;;13.82
40199;BMP280;25906;43.536;26.068;2023-02-26T06:42:41;97474.56;;;13.93
40199;BMP280;25906;43.536;26.068;2023-02-26T06:45:26;97482.38;;;14.01
40199;BMP280;25906;43.536;26.068;2023-02-26T06:48:12;97475.75;;;14.06
40199;BMP280;25906;43.536;26.068;2023-02-26T06:50:57;97474.31;;;14.03
40199;BMP280;25906;43.536;26.068;2023-02-26T06:53:43;97463.19;;;14.14
40199;BMP280;25906;43.536;26.068;2023-02-26T06:56:29;97468.44;;;14.10
40199;BMP280;25906;43.536;26.068;2023-02-26T06:59:14;97473.22;;;14.10
40199;BMP280;25906;43.536;26.068;2023-02-26T07:02:00;97473.13;;;14.08
40199;BMP280;25906;43.536;26.068;2023-02-26T07:04:45;97466.34;;;14.09
40199;BMP280;25906;43.536;26.068;2023-02-26T07:07:31;97471.72;;;14.07
40199;BMP280;25906;43.536;26.068;2023-02-26T07:10:17;97458.28;;;14.11
40199;BMP280;25906;43.536;26.068;2023-02-26T07:13:02;97468.00;;;14.16
40199;BMP280;25906;43.536;26.068;2023-02-26T07:15:48;97469.66;;;14.22
40199;BMP280;25906;43.536;26.068;2023-02-26T07:18:36;97463.09;;;14.29
40199;BMP280;25906;43.536;26.068;2023-02-26T07:21:21;97469.69;;;14.24
40199;BMP280;25906;43.536;26.068;2023-02-26T07:24:07;97471.59;;;14.37
40199;BMP280;25906;43.536;26.068;2023-02-26T07:26:53;97474.38;;;14.39
40199;BMP280;25906;43.536;26.068;2023-02-26T07:29:38;97470.78;;;14.35
40199;BMP280;25906;43.536;26.068;2023-02-26T07:32:24;97470.41;;;14.25
40199;BMP280;25906;43.536;26.068;2023-02-26T07:35:09;97472.66;;;14.30
40199;BMP280;25906;43.536;26.068;2023-02-26T07:37:55;97471.25;;;14.29
40199;BMP280;25906;43.536;26.068;2023-02-26T07:40:40;97475.53;;;14.34
40199;BMP280;25906;43.536;26.068;2023-02-26T07:43:26;97483.50;;;14.28
40199;BMP280;25906;43.536;26.068;2023-02-26T07:46:12;97476.34;;;14.37
40199;BMP280;25906;43.536;26.068;2023-02-26T07:48:57;97475.16;;;14.42
40199;BMP280;25906;43.536;26.068;2023-02-26T07:51:43;97475.47;;;14.32
40199;BMP280;25906;43.536;26.068;2023-02-26T07:54:30;97467.38;;;14.52
40199;BMP280;25906;43.536;26.068;2023-02-26T07:57:15;97473.13;;;14.60
40199;BMP280;25906;43.536;26.068;2023-02-26T08:00:01;97476.06;;;14.65
40199;BMP280;25906;43.536;26.068;2023-02-26T08:02:46;97476.44;;;14.75
40199;BMP280;25906;43.536;26.068;2023-02-26T08:05:32;97476.56;;;14.97
40199;BMP280;25906;43.536;26.068;2023-02-26T08:08:17;97490.44;;;15.05
40199;BMP280;25906;43.536;26.068;2023-02-26T08:11:03;97482.47;;;15.30
40199;BMP280;25906;43.536;26.068;2023-02-26T08:13:49;97491.25;;;15.46
40199;BMP280;25906;43.536;26.068;2023-02-26T08:16:34;97486.66;;;15.52
40199;BMP280;25906;43.536;26.068;2023-02-26T08:19:20;97482.94;;;15.63
40199;BMP280;25906;43.536;26.068;2023-02-26T08:22:05;97484.75;;;15.76
40199;BMP280;25906;43.536;26.068;2023-02-26T08:24:51;97497.94;;;15.83
40199;BMP280;25906;43.536;26.068;2023-02-26T08:27:37;97492.09;;;15.93
40199;BMP280;25906;43.536;26.068;2023-02-26T08:30:22;97489.47;;;15.95
40199;BMP280;25906;43.536;26.068;2023-02-26T08:33:08;97491.84;;;16.06
40199;BMP280;25906;43.536;26.068;2023-02-26T08:35:53;97494.41;;;16.00
40199;BMP280;25906;43.536;26.068;2023-02-26T08:38:43;97498.47;;;15.99
40199;BMP280;25906;43.536;26.068;2023-02-26T08:41:28;97497.28;;;16.04
40199;BMP280;25906;43.536;26.068;2023-02-26T08:44:16;97498.28;;;16.14
40199;BMP280;25906;43.536;26.068;2023-02-26T08:47:02;97490.09;;;16.14
40199;BMP280;25906;43.536;26.068;2023-02-26T08:49:48;97498.09;;;16.08
40199;BMP280;25906;43.536;26.068;2023-02-26T08:52:33;97496.25;;;16.15
40199;BMP280;25906;43.536;26.068;2023-02-26T08:55:19;97497.97;;;16.26
40199;BMP280;25906;43.536;26.068;2023-02-26T08:58:04;97498.97;;;16.36
40199;BMP280;25906;43.536;26.068;2023-02-26T09:00:50;97502.00;;;16.25
40199;BMP280;25906;43.536;26.068;2023-02-26T09:03:35;97504.41;;;16.36
40199;BMP280;25906;43.536;26.068;2023-02-26T09:06:21;97504.66;;;16.44
40199;BMP280;25906;43.536;26.068;2023-02-26T09:09:06;97500.66;;;16.47
40199;BMP280;25906;43.536;26.068;2023-02-26T09:11:52;97496.19;;;16.57
40199;BMP280;25906;43.536;26.068;2023-02-26T09:14:38;97491.66;;;16.66
40199;BMP280;25906;43.536;26.068;2023-02-26T09:17:24;97492.41;;;16.68
40199;BMP280;25906;43.536;26.068;2023-02-26T09:20:11;97483.75;;;16.76
40199;BMP280;25906;43.536;26.068;2023-02-26T09:22:56;97494.31;;;16.87
40199;BMP280;25906;43.536;26.068;2023-02-26T09:25:42;97499.44;;;16.75
40199;BMP280;25906;43.536;26.068;2023-02-26T09:28:27;97497.00;;;16.85
40199;BMP280;25906;43.536;26.068;2023-02-26T09:31:13;97501.78;;;16.84
40199;BMP280;25906;43.536;26.068;2023-02-26T09:33:58;97495.22;;;16.70
40199;BMP280;25906;43.536;26.068;2023-02-26T09:36:44;97501.31;;;16.69
40199;BMP280;25906;43.536;26.068;2023-02-26T09:39:31;97506.63;;;16.63
40199;BMP280;25906;43.536;26.068;2023-02-26T09:42:28;97495.81;;;16.92
40199;BMP280;25906;43.536;26.068;2023-02-26T09:45:32;97495.47;;;17.03
40199;BMP280;25906;43.536;26.068;2023-02-26T09:48:19;97492.50;;;16.95
40199;BMP280;25906;43.536;26.068;2023-02-26T09:51:11;97485.97;;;17.06
40199;BMP280;25906;43.536;26.068;2023-02-26T09:54:13;97494.69;;;16.99
40199;BMP280;25906;43.536;26.068;2023-02-26T09:57:00;97500.69;;;17.19
40199;BMP280;25906;43.536;26.068;2023-02-26T09:59:45;97489.84;;;17.23
40199;BMP280;25906;43.536;26.068;2023-02-26T10:05:40;97497.22;;;17.41
40199;BMP280;25906;43.536;26.068;2023-02-26T10:08:33;97501.03;;;17.58
40199;BMP280;25906;43.536;26.068;2023-02-26T10:11:35;97497.72;;;17.36
40199;BMP280;25906;43.536;26.068;2023-02-26T10:14:37;97509.91;;;17.31
40199;BMP280;25906;43.536;26.068;2023-02-26T10:17:34;97503.94;;;17.38
40199;BMP280;25906;43.536;26.068;2023-02-26T10:26:32;97505.72;;;17.53
40199;BMP280;25906;43.536;26.068;2023-02-26T10:29:33;97520.91;;;17.58
40199;BMP280;25906;43.536;26.068;2023-02-26T10:35:26;97510.88;;;17.68
40199;BMP280;25906;43.536;26.068;2023-02-26T10:38:17;97512.97;;;17.97
40199;BMP280;25906;43.536;26.068;2023-02-26T10:41:09;97506.94;;;18.03
40199;BMP280;25906;43.536;26.068;2023-02-26T10:44:05;97506.34;;;18.06
40199;BMP280;25906;43.536;26.068;2023-02-26T10:47:04;97495.91;;;17.99
40199;BMP280;25906;43.536;26.068;2023-02-26T10:50:11;97498.47;;;18.22
40199;BMP280;25906;43.536;26.068;2023-02-26T10:52:57;97489.91;;;18.06
40199;BMP280;25906;43.536;26.068;2023-02-26T10:56:04;97491.13;;;18.28
40199;BMP280;25906;43.536;26.068;2023-02-26T10:58:51;97477.75;;;18.13
40199;BMP280;25906;43.536;26.068;2023-02-26T11:01:37;97496.63;;;18.01
40199;BMP280;25906;43.536;26.068;2023-02-26T11:04:25;97487.25;;;17.81
40199;BMP280;25906;43.536;26.068;2023-02-26T11:07:10;97490.16;;;17.89
40199;BMP280;25906;43.536;26.068;2023-02-26T11:09:59;97495.22;;;18.00
40199;BMP280;25906;43.536;26.068;2023-02-26T11:12:45;97495.31;;;18.02
40199;BMP280;25906;43.536;26.068;2023-02-26T11:15:31;97480.56;;;18.17
40199;BMP280;25906;43.536;26.068;2023-02-26T11:18:22;97469.13;;;18.26
40199;BMP280;25906;43.536;26.068;2023-02-26T11:21:17;97468.00;;;18.37
40199;BMP280;25906;43.536;26.068;2023-02-26T11:27:20;97471.81;;;18.24
40199;BMP280;25906;43.536;26.068;2023-02-26T11:30:15;97475.00;;;18.13
40199;BMP280;25906;43.536;26.068;2023-02-26T11:33:15;97472.53;;;17.96
40199;BMP280;25906;43.536;26.068;2023-02-26T11:36:07;97480.63;;;17.90
40199;BMP280;25906;43.536;26.068;2023-02-26T11:39:16;97479.38;;;17.95
40199;BMP280;25906;43.536;26.068;2023-02-26T11:42:03;97488.13;;;17.89
40199;BMP280;25906;43.536;26.068;2023-02-26T11:44:50;97499.59;;;17.82
40199;BMP280;25906;43.536;26.068;2023-02-26T11:47:36;97490.06;;;17.85
40199;BMP280;25906;43.536;26.068;2023-02-26T11:50:21;97504.41;;;18.10
40199;BMP280;25906;43.536;26.068;2023-02-26T11:53:25;97489.47;;;18.17
40199;BMP280;25906;43.536;26.068;2023-02-26T11:56:22;97493.97;;;18.05
40199;BMP280;25906;43.536;26.068;2023-02-26T11:59:23;97488.31;;;18.26
40199;BMP280;25906;43.536;26.068;2023-02-26T12:02:13;97488.47;;;18.34
40199;BMP280;25906;43.536;26.068;2023-02-26T12:05:02;97501.75;;;18.46
40199;BMP280;25906;43.536;26.068;2023-02-26T12:07:49;97500.03;;;18.60
40199;BMP280;25906;43.536;26.068;2023-02-26T12:10:38;97507.41;;;18.53
40199;BMP280;25906;43.536;26.068;2023-02-26T12:13:41;97517.38;;;18.39
40199;BMP280;25906;43.536;26.068;2023-02-26T12:26:02;97508.00;;;17.90
40199;BMP280;25906;43.536;26.068;2023-02-26T12:32:12;97523.63;;;17.85
40199;BMP280;25906;43.536;26.068;2023-02-26T12:44:04;97500.59;;;17.42
40199;BMP280;25906;43.536;26.068;2023-02-26T13:02:51;97495.06;;;17.13
40199;BMP280;25906;43.536;26.068;2023-02-26T13:11:53;97497.63;;;17.07
40199;BMP280;25906;43.536;26.068;2023-02-26T13:18:25;97502.34;;;17.04
40199;BMP280;25906;43.536;26.068;2023-02-26T13:24:12;97474.25;;;16.79
40199;BMP280;25906;43.536;26.068;2023-02-26T13:27:00;97487.75;;;16.73
40199;BMP280;25906;43.536;26.068;2023-02-26T13:30:05;97486.19;;;16.89
40199;BMP280;25906;43.536;26.068;2023-02-26T13:32:59;97482.84;;;16.67
40199;BMP280;25906;43.536;26.068;2023-02-26T13:35:48;97473.16;;;16.64
40199;BMP280;25906;43.536;26.068;2023-02-26T13:42:10;97477.94;;;16.40
40199;BMP280;25906;43.536;26.068;2023-02-26T13:45:20;97473.19;;;16.41
40199;BMP280;25906;43.536;26.068;2023-02-26T13:57:22;97501.81;;;16.40
40199;BMP280;25906;43.536;26.068;2023-02-26T14:00:25;97507.00;;;16.53
40199;BMP280;25906;43.536;26.068;2023-02-26T14:08:55;97504.91;;;16.52
40199;BMP280;25906;43.536;26.068;2023-02-26T14:18:04;97523.31;;;16.51
40199;BMP280;25906;43.536;26.068;2023-02-26T14:20:50;97531.66;;;16.55
40199;BMP280;25906;43.536;26.068;2023-02-26T14:23:36;97530.19;;;16.52
40199;BMP280;25906;43.536;26.068;2023-02-26T14:26:24;97529.84;;;16.40
40199;BMP280;25906;43.536;26.068;2023-02-26T14:29:24;97535.19;;;16.37
40199;BMP280;25906;43.536;26.068;2023-02-26T14:35:01;97537.13;;;16.34
40199;BMP280;25906;43.536;26.068;2023-02-26T14:38:05;97551.00;;;16.40
40199;BMP280;25906;43.536;26.068;2023-02-26T14:41:05;97550.06;;;16.34
40199;BMP280;25906;43.536;26.068;2023-02-26T14:44:18;97548.53;;;16.27
40199;BMP280;25906;43.536;26.068;2023-02-26T14:47:07;97549.97;;;16.30
40199;BMP280;25906;43.536;26.068;2023-02-26T14:49:53;97558.00;;;16.24
40199;BMP280;25906;43.536;26.068;2023-02-26T15:10:40;97591.16;;;15.95
40199;BMP280;25906;43.536;26.068;2023-02-26T15:25:43;97578.84;;;15.75
40199;BMP280;25906;43.536;26.068;2023-02-26T15:28:35;97578.84;;;15.75
40199;BMP280;25906;43.536;26.068;2023-02-26T15:31:35;97582.13;;;15.71
40199;BMP280;25906;43.536;26.068;2023-02-26T15:34:21;97587.53;;;15.69
40199;BMP280;25906;43.536;26.068;2023-02-26T15:37:18;97592.81;;;15.63
40199;BMP280;25906;43.536;26.068;2023-02-26T15:40:05;97610.50;;;15.62
40199;BMP280;25906;43.536;26.068;2023-02-26T15:42:54;97607.38;;;15.52
40199;BMP280;25906;43.536;26.068;2023-02-26T15:45:42;97612.84;;;15.52
40199;BMP280;25906;43.536;26.068;2023-02-26T15:48:32;97622.22;;;15.48
40199;BMP280;25906;43.536;26.068;2023-02-26T15:51:18;97626.09;;;15.41
40199;BMP280;25906;43.536;26.068;2023-02-26T15:54:05;97624.91;;;15.28
40199;BMP280;25906;43.536;26.068;2023-02-26T15:56:51;97624.72;;;15.42
40199;BMP280;25906;43.536;26.068;2023-02-26T15:59:42;97599.66;;;15.28
40199;BMP280;25906;43.536;26.068;2023-02-26T16:02:31;97594.78;;;15.24
40199;BMP280;25906;43.536;26.068;2023-02-26T16:05:17;97597.41;;;15.22
40199;BMP280;25906;43.536;26.068;2023-02-26T16:08:02;97585.06;;;15.19
40199;BMP280;25906;43.536;26.068;2023-02-26T16:10:50;97586.81;;;15.13
40199;BMP280;25906;43.536;26.068;2023-02-26T16:13:38;97592.84;;;15.09
40199;BMP280;25906;43.536;26.068;2023-02-26T16:16:39;97598.78;;;15.04
40199;BMP280;25906;43.536;26.068;2023-02-26T16:19:35;97608.28;;;15.03
40199;BMP280;25906;43.536;26.068;2023-02-26T16:22:38;97620.44;;;15.00
40199;BMP280;25906;43.536;26.068;2023-02-26T16:25:29;97642.84;;;14.99
40199;BMP280;25906;43.536;26.068;2023-02-26T16:28:19;97642.63;;;14.93
40199;BMP280;25906;43.536;26.068;2023-02-26T16:31:05;97650.88;;;14.95
40199;BMP280;25906;43.536;26.068;2023-02-26T16:33:59;97655.25;;;15.02
40199;BMP280;25906;43.536;26.068;2023-02-26T16:36:45;97656.19;;;14.91
40199;BMP280;25906;43.536;26.068;2023-02-26T16:39:30;97645.88;;;14.89
40199;BMP280;25906;43.536;26.068;2023-02-26T16:42:22;97657.91;;;14.82
40199;BMP280;25906;43.536;26.068;2023-02-26T16:48:25;97669.31;;;14.79
40199;BMP280;25906;43.536;26.068;2023-02-26T16:51:14;97651.66;;;14.80
40199;BMP280;25906;43.536;26.068;2023-02-26T16:54:04;97663.56;;;14.71
40199;BMP280;25906;43.536;26.068;2023-02-26T16:56:57;97674.69;;;14.77
40199;BMP280;25906;43.536;26.068;2023-02-26T16:59:52;97676.56;;;14.72
40199;BMP280;25906;43.536;26.068;2023-02-26T17:02:38;97672.53;;;14.73
40199;BMP280;25906;43.536;26.068;2023-02-26T17:05:28;97672.13;;;14.64
40199;BMP280;25906;43.536;26.068;2023-02-26T17:08:18;97674.84;;;14.64
40199;BMP280;25906;43.536;26.068;2023-02-26T17:11:14;97684.41;;;14.64
40199;BMP280;25906;43.536;26.068;2023-02-26T17:14:09;97674.16;;;14.63
40199;BMP280;25906;43.536;26.068;2023-02-26T17:16:56;97681.31;;;14.72
40199;BMP280;25906;43.536;26.068;2023-02-26T17:19:42;97676.00;;;14.76
40199;BMP280;25906;43.536;26.068;2023-02-26T17:22:28;97675.88;;;14.72
40199;BMP280;25906;43.536;26.068;2023-02-26T17:25:17;97682.44;;;14.82
40199;BMP280;25906;43.536;26.068;2023-02-26T17:28:05;97670.56;;;14.76
40199;BMP280;25906;43.536;26.068;2023-02-26T17:30:52;97681.47;;;14.76
40199;BMP280;25906;43.536;26.068;2023-02-26T17:33:40;97684.19;;;14.76
40199;BMP280;25906;43.536;26.068;2023-02-26T17:36:26;97688.22;;;14.75
40199;BMP280;25906;43.536;26.068;2023-02-26T17:39:12;97688.22;;;14.75
40199;BMP280;25906;43.536;26.068;2023-02-26T17:41:57;97683.94;;;14.70
40199;BMP280;25906;43.536;26.068;2023-02-26T17:44:43;97679.66;;;14.65
40199;BMP280;25906;43.536;26.068;2023-02-26T17:47:28;97694.84;;;14.70
40199;BMP280;25906;43.536;26.068;2023-02-26T17:53:03;97697.31;;;14.64
40199;BMP280;25906;43.536;26.068;2023-02-26T17:55:50;97690.84;;;14.56
40199;BMP280;25906;43.536;26.068;2023-02-26T17:58:37;97667.47;;;14.51
40199;BMP280;25906;43.536;26.068;2023-02-26T18:01:24;97671.31;;;14.61
40199;BMP280;25906;43.536;26.068;2023-02-26T18:04:12;97686.00;;;14.54
40199;BMP280;25906;43.536;26.068;2023-02-26T18:07:00;97684.38;;;14.47
40199;BMP280;25906;43.536;26.068;2023-02-26T18:09:47;97695.19;;;14.45
40199;BMP280;25906;43.536;26.068;2023-02-26T18:12:32;97684.28;;;14.45
40199;BMP280;25906;43.536;26.068;2023-02-26T18:15:18;97685.84;;;14.50
40199;BMP280;25906;43.536;26.068;2023-02-26T18:18:03;97696.22;;;14.54
40199;BMP280;25906;43.536;26.068;2023-02-26T18:20:51;97691.59;;;14.41
40199;BMP280;25906;43.536;26.068;2023-02-26T18:23:36;97688.75;;;14.39
40199;BMP280;25906;43.536;26.068;2023-02-26T18:26:23;97683.97;;;14.37
40199;BMP280;25906;43.536;26.068;2023-02-26T18:29:11;97693.00;;;14.42
40199;BMP280;25906;43.536;26.068;2023-02-26T18:31:57;97688.25;;;14.42
40199;BMP280;25906;43.536;26.068;2023-02-26T18:34:44;97687.28;;;14.36
40199;BMP280;25906;43.536;26.068;2023-02-26T18:37:30;97683.69;;;14.31
40199;BMP280;25906;43.536;26.068;2023-02-26T18:40:20;97680.44;;;14.35
40199;BMP280;25906;43.536;26.068;2023-02-26T18:43:06;97687.44;;;14.40
40199;BMP280;25906;43.536;26.068;2023-02-26T18:45:54;97688.53;;;14.33
40199;BMP280;25906;43.536;26.068;2023-02-26T18:48:41;97685.25;;;14.36
40199;BMP280;25906;43.536;26.068;2023-02-26T18:51:26;97687.19;;;14.34
40199;BMP280;25906;43.536;26.068;2023-02-26T18:54:14;97683.69;;;14.31